Time;durP1;ratioP1;P1;durP2;ratioP2;P2;SDS_P1;SDS_P2;PMS_P1;PMS_P2;Temp;Humidity;BMP_temperature;BMP_pressure;BME280_temperature;BME280_humidity;BME280_pressure;Samples;Min_cycle;Max_cycle;Signal;HPM_P1;HPM_P2
2022/05/10 00:00:12;;;;;;;15.27;5.20;;;13.60;99.90;;;;;;5098052;28;20059;-72
2022/05/10 00:02:38;;;;;;;13.60;4.78;;;13.60;99.90;;;;;;5098059;28;20051;-71
2022/05/10 00:05:06;;;;;;;12.07;5.70;;;13.50;99.90;;;;;;5097964;28;20040;-71
2022/05/10 00:07:34;;;;;;;16.55;5.43;;;13.50;99.90;;;;;;5098360;28;20421;-72
2022/05/10 00:10:00;;;;;;;11.93;5.80;;;13.40;99.90;;;;;;5098387;28;20043;-71
2022/05/10 00:12:26;;;;;;;12.05;5.10;;;13.40;99.90;;;;;;5097891;28;20036;-71
2022/05/10 00:14:52;;;;;;;12.93;4.95;;;13.40;99.90;;;;;;5097966;28;20566;-72
2022/05/10 00:17:26;;;;;;;10.15;3.97;;;13.40;99.90;;;;;;5098109;28;20036;-72
2022/05/10 00:19:52;;;;;;;10.63;4.68;;;13.30;99.90;;;;;;5098210;28;20048;-71
2022/05/10 00:22:17;;;;;;;10.85;4.18;;;13.30;99.90;;;;;;5097878;28;20141;-71
2022/05/10 00:24:43;;;;;;;14.32;4.80;;;13.30;99.90;;;;;;5097805;28;20098;-71
2022/05/10 00:27:08;;;;;;;9.80;5.13;;;13.30;99.90;;;;;;5097365;28;20068;-71
2022/05/10 00:29:34;;;;;;;8.40;4.40;;;13.20;99.90;;;;;;5098007;28;20063;-71
2022/05/10 00:31:59;;;;;;;15.20;5.07;;;13.20;99.90;;;;;;5097858;28;20040;-71
2022/05/10 00:34:28;;;;;;;11.52;4.57;;;13.20;99.90;;;;;;5097684;28;20126;-72
2022/05/10 00:36:54;;;;;;;13.63;4.63;;;13.20;99.90;;;;;;5097457;28;20048;-72
2022/05/10 00:39:20;;;;;;;17.08;4.53;;;13.10;99.90;;;;;;5097574;28;20158;-71
2022/05/10 00:41:56;;;;;;;9.30;4.65;;;13.10;99.90;;;;;;5097180;28;20082;-71
2022/05/10 00:44:53;;;;;;;12.25;4.72;;;13.10;99.90;;;;;;5097337;28;20055;-72
2022/05/10 00:47:38;;;;;;;15.48;4.55;;;13.10;99.90;;;;;;5079437;28;20040;-71
2022/05/10 00:50:07;;;;;;;12.65;5.22;;;13.10;99.90;;;;;;5079176;28;20074;-72
2022/05/10 00:52:55;;;;;;;14.15;5.88;;;13.10;99.90;;;;;;5097013;28;20094;-72
2022/05/10 00:55:23;;;;;;;12.63;5.20;;;13.10;99.90;;;;;;5097609;28;20044;-71
2022/05/10 00:57:54;;;;;;;14.68;5.22;;;13.10;99.90;;;;;;5096511;28;20479;-72
2022/05/10 01:00:28;;;;;;;13.50;4.78;;;13.10;99.90;;;;;;5078109;28;20061;-71
2022/05/10 01:03:15;;;;;;;9.38;4.70;;;13.10;99.90;;;;;;5079109;28;20058;-72
2022/05/10 01:06:00;;;;;;;12.35;5.10;;;13.00;99.90;;;;;;5097178;28;20173;-71
2022/05/10 01:08:29;;;;;;;10.90;4.75;;;13.00;99.90;;;;;;5079197;28;20474;-71
2022/05/10 01:11:18;;;;;;;13.07;4.80;;;12.90;99.90;;;;;;5078919;28;20051;-72
2022/05/10 01:14:08;;;;;;;11.13;5.60;;;12.90;99.90;;;;;;5096748;28;20087;-72
2022/05/10 01:16:35;;;;;;;12.05;5.35;;;12.90;99.90;;;;;;5096634;28;20127;-72
2022/05/10 01:19:00;;;;;;;13.13;4.95;;;12.80;99.90;;;;;;5093758;28;20135;-72
2022/05/10 01:21:57;;;;;;;12.98;5.10;;;12.80;99.90;;;;;;5096737;28;20067;-71
2022/05/10 01:24:55;;;;;;;12.23;4.57;;;12.80;99.90;;;;;;5096810;28;20046;-72
2022/05/10 01:27:58;;;;;;;13.07;4.65;;;12.80;99.90;;;;;;5078044;28;20135;-72
2022/05/10 01:30:30;;;;;;;8.87;5.00;;;12.80;99.90;;;;;;5095697;28;20040;-72
2022/05/10 01:36:12;;;;;;;12.63;6.13;;;12.70;99.90;;;;;;5096510;28;20044;-71
2022/05/10 01:39:00;;;;;;;15.02;4.85;;;12.70;99.90;;;;;;5096562;28;20087;-72
2022/05/10 01:41:43;;;;;;;10.68;4.70;;;12.70;99.90;;;;;;5078882;28;20116;-72
2022/05/10 01:44:20;;;;;;;12.82;4.63;;;12.70;99.90;;;;;;5096104;28;20066;-71
2022/05/10 01:46:49;;;;;;;11.48;4.85;;;12.70;99.90;;;;;;5096266;28;20086;-71
2022/05/10 01:49:40;;;;;;;11.98;4.68;;;12.70;99.90;;;;;;5096030;28;20095;-72
2022/05/10 01:52:30;;;;;;;11.98;5.03;;;12.60;99.90;;;;;;5095991;28;20047;-72
2022/05/10 01:55:00;;;;;;;10.35;5.47;;;12.60;99.90;;;;;;5095872;28;20055;-71
2022/05/10 01:57:28;;;;;;;12.18;5.03;;;12.50;99.90;;;;;;5095885;28;20125;-72
2022/05/10 02:00:07;;;;;;;13.57;5.50;;;12.50;99.90;;;;;;5078352;28;20052;-72
2022/05/10 02:02:35;;;;;;;12.40;5.43;;;12.50;99.90;;;;;;5096109;28;20418;-71
2022/05/10 02:05:05;;;;;;;12.32;5.30;;;12.50;99.90;;;;;;5095675;28;20052;-72
2022/05/10 02:07:33;;;;;;;12.35;5.07;;;12.40;99.90;;;;;;5095184;28;20059;-72
2022/05/10 02:10:27;;;;;;;11.90;5.47;;;12.40;99.90;;;;;;5095661;28;20040;-72
2022/05/10 02:12:56;;;;;;;;;;;12.40;99.90;;;;;;5086500;28;20071;-71
2022/05/10 02:15:23;;;;;;;13.25;5.72;;;12.40;99.90;;;;;;5095556;28;19928;-71
2022/05/10 02:18:11;;;;;;;12.10;5.32;;;12.40;99.90;;;;;;5095809;28;20067;-72
2022/05/10 02:20:49;;;;;;;10.73;5.85;;;12.40;99.90;;;;;;5095507;28;20059;-71
2022/05/10 02:23:47;;;;;;;11.43;5.50;;;12.40;99.90;;;;;;5095707;28;20043;-71
2022/05/10 02:26:18;;;;;;;11.10;5.15;;;12.50;99.90;;;;;;5087771;28;20087;-71
2022/05/10 02:29:04;;;;;;;11.15;5.32;;;12.50;99.90;;;;;;5095107;28;20055;-71
2022/05/10 02:33:06;;;;;;;12.20;5.22;;;12.50;99.90;;;;;;5095466;28;20054;-70
2022/05/10 02:34:26;;;;;;;12.88;5.70;;;12.50;99.90;;;;;;5095390;28;20059;-71
2022/05/10 02:36:51;;;;;;;13.02;5.97;;;12.60;99.90;;;;;;5094989;28;20391;-71
2022/05/10 02:39:17;;;;;;;16.65;5.70;;;12.50;99.90;;;;;;5095429;28;20069;-71
2022/05/10 02:41:43;;;;;;;10.50;5.65;;;12.60;99.90;;;;;;5077812;28;20404;-71
2022/05/10 02:44:08;;;;;;;12.25;5.82;;;12.60;99.90;;;;;;5095549;28;20467;-71
2022/05/10 02:46:34;;;;;;;14.30;5.45;;;12.60;99.90;;;;;;5095291;28;20123;-72
2022/05/10 02:49:00;;;;;;;15.10;6.32;;;12.60;99.90;;;;;;5094764;28;20383;-72
2022/05/10 02:51:25;;;;;;;13.23;6.03;;;12.60;99.90;;;;;;5094948;28;20040;-71
2022/05/10 02:53:51;;;;;;;12.90;6.15;;;12.60;99.90;;;;;;5095067;28;20044;-71
2022/05/10 02:56:20;;;;;;;13.13;6.45;;;12.60;99.90;;;;;;5094956;28;20044;-71
2022/05/10 02:59:02;;;;;;;13.95;6.50;;;12.60;99.90;;;;;;5094703;28;20052;-71
2022/05/10 03:01:52;;;;;;;14.07;6.88;;;12.60;99.90;;;;;;5094952;28;20039;-72
2022/05/10 03:04:18;;;;;;;14.70;6.80;;;12.70;99.90;;;;;;5094900;28;20040;-72
2022/05/10 03:06:46;;;;;;;13.93;6.30;;;12.70;99.90;;;;;;5077593;28;20352;-72
2022/05/10 03:09:12;;;;;;;12.38;6.78;;;12.70;99.90;;;;;;5095026;28;20123;-72
2022/05/10 03:11:38;;;;;;;15.05;6.65;;;12.70;99.90;;;;;;5076966;28;20069;-71
2022/05/10 03:14:06;;;;;;;12.38;6.93;;;12.70;99.90;;;;;;5095729;28;20383;-72
2022/05/10 03:16:32;;;;;;;12.25;6.38;;;12.70;99.90;;;;;;5095064;28;20402;-72
2022/05/10 03:18:57;;;;;;;14.18;6.75;;;12.70;99.90;;;;;;5095874;28;20047;-71
2022/05/10 03:21:24;;;;;;;17.58;6.78;;;12.70;99.90;;;;;;5099096;28;20112;-71
2022/05/10 03:23:50;;;;;;;15.63;7.80;;;12.70;99.90;;;;;;5099261;28;20112;-72
2022/05/10 03:26:21;;;;;;;16.77;7.47;;;12.70;99.90;;;;;;5098438;28;20113;-72
2022/05/10 03:28:47;;;;;;;18.23;7.80;;;12.70;99.90;;;;;;5098848;28;20040;-71
2022/05/10 03:31:17;;;;;;;15.90;7.90;;;12.70;99.90;;;;;;5080276;28;20055;-71
2022/05/10 03:33:43;;;;;;;12.48;7.00;;;12.70;99.90;;;;;;5081288;28;20071;-71
2022/05/10 03:36:09;;;;;;;20.25;7.95;;;12.70;99.90;;;;;;5099006;28;20337;-72
2022/05/10 03:38:36;;;;;;;16.35;7.82;;;12.70;99.90;;;;;;5099091;28;20043;-71
2022/05/10 03:41:02;;;;;;;15.35;7.45;;;12.70;99.90;;;;;;5099240;28;20059;-71
2022/05/10 03:43:28;;;;;;;17.55;7.50;;;12.70;99.90;;;;;;5098898;28;20359;-71
2022/05/10 03:45:54;;;;;;;17.17;7.50;;;12.60;99.90;;;;;;5098744;28;20144;-72
2022/05/10 03:48:20;;;;;;;16.98;8.38;;;12.60;99.90;;;;;;5098944;28;20117;-72
2022/05/10 03:50:46;;;;;;;11.80;7.53;;;12.70;99.90;;;;;;5098766;28;20131;-70
2022/05/10 03:53:11;;;;;;;16.35;7.65;;;12.70;99.90;;;;;;5098365;28;20492;-71
2022/05/10 03:55:37;;;;;;;15.88;8.40;;;12.60;99.90;;;;;;5098147;28;20036;-70
2022/05/10 03:58:04;;;;;;;20.30;8.90;;;12.60;99.90;;;;;;5080151;28;20349;-71
2022/05/10 04:00:30;;;;;;;12.82;7.07;;;12.70;99.90;;;;;;5098492;28;20122;-71
2022/05/10 04:02:57;;;;;;;13.63;7.95;;;12.60;99.90;;;;;;5099520;28;20355;-70
2022/05/10 04:05:27;;;;;;;14.10;7.90;;;12.70;99.90;;;;;;5097641;28;20096;-70
2022/05/10 04:07:53;;;;;;;16.08;8.10;;;12.70;99.90;;;;;;5087109;28;20060;-71
2022/05/10 04:10:22;;;;;;;17.73;9.00;;;12.70;99.90;;;;;;5077448;28;20548;-71
2022/05/10 04:12:48;;;;;;;13.48;7.57;;;12.70;99.90;;;;;;5095015;28;20044;-71
2022/05/10 04:15:16;;;;;;;14.40;8.30;;;12.70;99.90;;;;;;5097763;28;20052;-71
2022/05/10 04:17:45;;;;;;;16.38;8.40;;;12.70;99.90;;;;;;5097982;28;20336;-71
2022/05/10 04:20:12;;;;;;;15.38;8.32;;;12.70;99.90;;;;;;5097761;28;20488;-71
2022/05/10 04:22:38;;;;;;;22.20;8.70;;;12.70;99.90;;;;;;5097332;28;20048;-70
2022/05/10 04:25:05;;;;;;;15.20;8.35;;;12.70;99.90;;;;;;5097716;28;20032;-72
2022/05/10 04:27:31;;;;;;;15.52;8.40;;;12.70;99.90;;;;;;5097331;28;20126;-71
2022/05/10 04:29:56;;;;;;;15.43;8.27;;;12.80;99.90;;;;;;5097203;28;20119;-71
2022/05/10 04:32:22;;;;;;;17.80;9.10;;;12.80;99.90;;;;;;5063309;28;20052;-72
2022/05/10 04:34:47;;;;;;;15.82;8.85;;;12.80;99.90;;;;;;5097650;28;20079;-71
2022/05/10 04:37:13;;;;;;;16.65;9.45;;;12.80;99.90;;;;;;5097232;28;20062;-72
2022/05/10 04:42:23;;;;;;;16.15;8.63;;;12.90;99.90;;;;;;5097623;28;20048;-72
2022/05/10 04:44:48;;;;;;;14.57;9.43;;;12.90;99.90;;;;;;5097672;28;20449;-71
2022/05/10 04:47:14;;;;;;;16.33;9.35;;;13.00;99.90;;;;;;5097556;28;20040;-72
2022/05/10 04:49:39;;;;;;;17.77;8.70;;;13.10;99.90;;;;;;5097407;28;20048;-72
2022/05/10 04:52:05;;;;;;;19.10;9.20;;;13.10;99.90;;;;;;5097023;28;20036;-72
2022/05/10 04:54:31;;;;;;;20.98;9.73;;;13.20;99.90;;;;;;5075932;28;20059;-71
2022/05/10 04:56:56;;;;;;;20.25;9.70;;;13.20;99.90;;;;;;5096476;28;20470;-70
2022/05/10 04:59:22;;;;;;;22.02;9.25;;;13.30;99.90;;;;;;5097132;28;20109;-71
2022/05/10 05:01:47;;;;;;;16.38;9.05;;;13.40;99.90;;;;;;5097177;28;20127;-72
2022/05/10 05:04:13;;;;;;;14.73;9.00;;;13.40;99.90;;;;;;5097253;28;20075;-72
2022/05/10 05:06:39;;;;;;;18.13;9.85;;;13.50;99.90;;;;;;5096908;28;20060;-71
2022/05/10 05:09:06;;;;;;;22.95;10.32;;;13.50;99.90;;;;;;5079381;28;20040;-71
2022/05/10 05:11:32;;;;;;;19.00;9.48;;;13.50;99.90;;;;;;5096807;28;20101;-71
2022/05/10 05:13:57;;;;;;;19.60;9.60;;;13.60;99.90;;;;;;5078919;28;20439;-72
2022/05/10 05:16:23;;;;;;;18.92;9.40;;;13.60;99.90;;;;;;5096883;28;20067;-71
2022/05/10 05:18:48;;;;;;;23.42;10.32;;;13.70;99.90;;;;;;5096694;28;20048;-71
2022/05/10 05:21:15;;;;;;;23.45;10.20;;;13.80;99.90;;;;;;5096568;28;20063;-71
2022/05/10 05:23:40;;;;;;;19.02;10.55;;;13.80;99.90;;;;;;5096364;28;20047;-71
2022/05/10 05:26:06;;;;;;;14.93;9.00;;;13.90;99.90;;;;;;5095336;28;20044;-72
2022/05/10 05:28:32;;;;;;;21.05;9.48;;;14.00;99.90;;;;;;5093629;28;20075;-73
2022/05/10 05:30:59;;;;;;;19.13;9.18;;;14.00;99.90;;;;;;5088285;28;20395;-73
2022/05/10 05:33:25;;;;;;;14.52;9.60;;;14.10;99.90;;;;;;5082928;28;20040;-74
2022/05/10 05:35:50;;;;;;;18.05;9.70;;;14.10;99.90;;;;;;5087292;28;20128;-73
2022/05/10 05:38:16;;;;;;;19.70;10.13;;;14.10;99.90;;;;;;5091543;28;20048;-71
2022/05/10 05:40:42;;;;;;;16.58;10.25;;;14.20;99.90;;;;;;5095704;28;20119;-73
2022/05/10 05:43:08;;;;;;;15.90;9.70;;;14.30;99.90;;;;;;5094976;28;20360;-71
2022/05/10 05:45:33;;;;;;;20.33;9.70;;;14.30;99.90;;;;;;5085214;28;20369;-74
2022/05/10 05:47:59;;;;;;;15.10;9.55;;;14.40;99.90;;;;;;5075851;28;20082;-71
2022/05/10 05:50:26;;;;;;;16.55;10.00;;;14.40;99.90;;;;;;5082790;28;20464;-73
2022/05/10 05:52:52;;;;;;;16.08;9.48;;;14.50;99.90;;;;;;5095410;28;20059;-70
2022/05/10 05:55:19;;;;;;;17.58;10.57;;;14.60;99.90;;;;;;5095342;28;20035;-71
2022/05/10 05:57:45;;;;;;;15.27;9.23;;;14.60;99.90;;;;;;5074264;28;20048;-71
2022/05/10 06:00:15;;;;;;;18.98;10.07;;;14.70;99.90;;;;;;5074176;28;20076;-72
2022/05/10 06:02:42;;;;;;;16.60;10.13;;;14.80;99.90;;;;;;5070663;28;20052;-71
2022/05/10 06:05:08;;;;;;;13.63;9.05;;;14.90;99.90;;;;;;5062653;28;20055;-74
2022/05/10 06:07:34;;;;;;;15.88;9.25;;;15.10;99.90;;;;;;5070954;28;20040;-72
2022/05/10 06:09:59;;;;;;;19.67;9.95;;;15.20;99.90;;;;;;5075470;28;20040;-70
2022/05/10 06:12:25;;;;;;;14.82;9.27;;;15.30;99.90;;;;;;5074760;28;20076;-70
2022/05/10 06:14:51;;;;;;;22.58;9.32;;;15.40;99.90;;;;;;5066619;28;20106;-69
2022/05/10 06:17:17;;;;;;;15.30;9.82;;;15.60;99.90;;;;;;5055060;28;20420;-71
2022/05/10 06:19:44;;;;;;;15.20;8.68;;;15.80;99.90;;;;;;5070850;28;20056;-69
2022/05/10 06:22:11;;;;;;;13.57;9.27;;;15.90;99.90;;;;;;5078006;28;20047;-69
2022/05/10 06:24:38;;;;;;;14.38;8.77;;;16.10;99.90;;;;;;5073648;28;20045;-71
2022/05/10 06:27:05;;;;;;;15.20;8.98;;;16.20;99.90;;;;;;5055095;28;20199;-68
2022/05/10 06:29:33;;;;;;;19.30;9.20;;;16.40;99.90;;;;;;5064494;28;20041;-70
2022/05/10 06:31:58;;;;;;;14.75;7.88;;;16.60;99.90;;;;;;5074876;28;20037;-72
2022/05/10 06:34:24;;;;;;;15.00;8.23;;;16.90;99.90;;;;;;5060369;28;20056;-70
2022/05/10 06:36:49;;;;;;;12.63;8.40;;;17.40;99.90;;;;;;5054773;28;20128;-73
2022/05/10 06:39:15;;;;;;;15.45;8.65;;;18.30;99.90;;;;;;5056799;28;20131;-72
2022/05/10 06:41:40;;;;;;;14.23;7.43;;;19.00;99.90;;;;;;5075020;28;20056;-73
2022/05/10 06:44:06;;;;;;;13.60;7.75;;;19.40;99.90;;;;;;5074947;28;20124;-73
2022/05/10 06:46:34;;;;;;;15.82;8.40;;;19.50;99.90;;;;;;5074117;28;20037;-72
2022/05/10 06:49:01;;;;;;;13.02;7.13;;;19.50;99.90;;;;;;5062206;28;20410;-73
2022/05/10 06:51:27;;;;;;;13.27;7.18;;;19.50;99.90;;;;;;5071801;28;20060;-70
2022/05/10 06:53:54;;;;;;;12.73;7.40;;;19.50;99.90;;;;;;5074518;28;20094;-71
2022/05/10 06:56:21;;;;;;;13.73;7.72;;;19.70;99.90;;;;;;5074488;28;20090;-68
2022/05/10 06:58:47;;;;;;;20.75;7.72;;;19.90;99.90;;;;;;5092015;28;20135;-71
2022/05/10 07:01:13;;;;;;;15.73;6.38;;;20.10;99.90;;;;;;5093846;28;20051;-72
2022/05/10 07:03:49;;;;;;;13.43;6.72;;;20.10;99.90;;;;;;5082110;28;20048;-71
2022/05/10 07:06:17;;;;;;;8.90;5.80;;;20.30;99.90;;;;;;5074340;28;20453;-72
2022/05/10 07:08:43;;;;;;;11.02;6.63;;;20.50;99.90;;;;;;5083743;28;20043;-73
2022/05/10 07:11:09;;;;;;;12.52;5.88;;;20.90;99.90;;;;;;5074381;28;20041;-72
2022/05/10 07:13:36;;;;;;;14.18;6.22;;;21.60;99.90;;;;;;5056707;28;20060;-72
2022/05/10 07:16:02;;;;;;;9.13;5.07;;;22.10;99.90;;;;;;5074616;28;20087;-73
2022/05/10 07:18:28;;;;;;;13.30;5.20;;;22.70;99.90;;;;;;5077182;28;20056;-73
2022/05/10 07:20:54;;;;;;;8.13;4.68;;;23.40;99.90;;;;;;5077357;28;20048;-72
2022/05/10 07:23:22;;;;;;;11.98;5.18;;;23.60;99.90;;;;;;5081625;28;20419;-72
2022/05/10 07:25:47;;;;;;;11.80;4.82;;;23.60;99.60;;;;;;5074128;28;20086;-73
2022/05/10 07:28:13;;;;;;;10.20;5.10;;;23.20;98.70;;;;;;5073979;28;20091;-72
2022/05/10 07:30:39;;;;;;;15.38;5.50;;;23.30;98.90;;;;;;5094152;28;20041;-71
2022/05/10 07:33:05;;;;;;;7.07;4.55;;;23.70;98.70;;;;;;5076446;28;20542;-76
2022/05/10 07:38:18;;;;;;;12.93;4.70;;;23.90;97.80;;;;;;5082698;28;20465;-75
2022/05/10 07:40:47;;;;;;;13.40;5.28;;;23.60;95.70;;;;;;5087540;28;20079;-75
2022/05/10 07:43:13;;;;;;;13.40;5.03;;;23.60;96.30;;;;;;5080319;28;20254;-73
2022/05/10 07:45:41;;;;;;;13.48;5.50;;;23.80;96.60;;;;;;5086188;28;20110;-74
2022/05/10 07:48:06;;;;;;;10.23;4.70;;;23.70;95.20;;;;;;5093444;28;20127;-73
2022/05/10 07:50:33;;;;;;;8.88;4.10;;;23.70;95.80;;;;;;5076989;28;20060;-74
2022/05/10 07:53:00;;;;;;;10.95;4.97;;;24.00;95.80;;;;;;5056543;28;20178;-74
2022/05/10 07:55:26;;;;;;;984.88;40.03;;;24.00;95.20;;;;;;5073992;28;20053;-74
2022/05/10 07:57:51;;;;;;;13.77;4.43;;;24.00;94.70;;;;;;5073450;28;20067;-73
2022/05/10 08:00:17;;;;;;;63.50;5.68;;;24.00;95.10;;;;;;5079296;28;20361;-71
2022/05/10 08:02:44;;;;;;;32.08;4.57;;;24.10;94.00;;;;;;5078015;28;20055;-71
2022/05/10 08:05:11;;;;;;;93.60;10.75;;;24.30;93.80;;;;;;5095043;28;20036;-71
2022/05/10 08:07:37;;;;;;;183.43;9.48;;;24.30;94.50;;;;;;5093501;28;20028;-73
2022/05/10 08:10:04;;;;;;;18.52;4.40;;;24.20;93.20;;;;;;5072218;28;20045;-74
2022/05/10 08:12:29;;;;;;;12.52;3.03;;;24.20;94.90;;;;;;5064790;28;20048;-72
2022/05/10 08:14:55;;;;;;;20.60;3.92;;;24.30;93.30;;;;;;5105389;28;20053;-72
2022/05/10 08:17:21;;;;;;;33.00;4.13;;;24.40;94.90;;;;;;5094292;28;20512;-72
2022/05/10 08:19:46;;;;;;;50.85;4.28;;;24.50;93.00;;;;;;5083061;28;21505;-72
2022/05/10 08:22:12;;;;;;;8.63;4.63;;;25.20;93.70;;;;;;5091343;28;20044;-73
2022/05/10 08:24:38;;;;;;;27.38;4.20;;;25.60;93.20;;;;;;5079316;28;20051;-72
2022/05/10 08:27:04;;;;;;;11.05;3.60;;;25.70;92.50;;;;;;5079363;28;20044;-72
2022/05/10 08:29:30;;;;;;;8.27;2.78;;;25.60;91.20;;;;;;5074749;28;20040;-73
2022/05/10 08:31:55;;;;;;;11.60;3.80;;;25.30;92.20;;;;;;5077366;28;20044;-72
2022/05/10 08:34:21;;;;;;;172.07;14.13;;;25.20;91.40;;;;;;5025779;28;20056;-74
2022/05/10 08:36:46;;;;;;;7.97;2.67;;;25.00;91.50;;;;;;5077392;28;20404;-73
2022/05/10 08:39:13;;;;;;;55.50;6.68;;;25.00;92.40;;;;;;5059023;28;20425;-74
2022/05/10 08:41:49;;;;;;;0.68;0.60;;;24.90;92.10;;;;;;5074253;28;20052;-73
2022/05/10 08:44:24;;;;;;;0.40;0.40;;;24.60;90.30;;;;;;5077137;28;20099;-73
2022/05/10 08:46:54;;;;;;;2.40;0.88;;;24.30;91.10;;;;;;5077416;28;20107;-73
2022/05/10 08:49:28;;;;;;;0.55;0.20;;;24.20;91.80;;;;;;5081278;28;20104;-73
2022/05/10 08:51:53;;;;;;;1.20;0.65;;;24.20;92.80;;;;;;5096927;28;20154;-73
2022/05/10 08:54:19;;;;;;;0.40;0.30;;;24.20;92.30;;;;;;5096942;28;20130;-74
2022/05/10 08:56:50;;;;;;;0.63;0.40;;;24.20;92.00;;;;;;5097166;28;20044;-73
2022/05/10 08:59:54;;;;;;;1.33;0.70;;;24.20;92.60;;;;;;5079098;28;20178;-73
2022/05/10 09:02:44;;;;;;;1.45;0.90;;;24.20;92.10;;;;;;5096814;28;20119;-74
2022/05/10 09:05:33;;;;;;;0.95;0.63;;;24.00;92.20;;;;;;5096730;28;20055;-74
2022/05/10 09:08:16;;;;;;;1.23;1.00;;;24.00;92.00;;;;;;5096906;28;20066;-73
2022/05/10 09:10:56;;;;;;;0.90;0.57;;;23.90;91.70;;;;;;5079243;28;20356;-72
2022/05/10 09:13:22;;;;;;;0.47;0.45;;;23.80;92.20;;;;;;5096537;28;20461;-73
2022/05/10 09:15:53;;;;;;;3.70;1.27;;;23.80;93.10;;;;;;5096692;28;20122;-73
2022/05/10 09:18:24;;;;;;;0.30;0.25;;;23.90;92.90;;;;;;5096585;28;20037;-74
2022/05/10 09:21:14;;;;;;;2.53;1.17;;;23.90;92.20;;;;;;5096188;28;20044;-73
2022/05/10 09:24:10;;;;;;;0.63;0.50;;;23.90;92.20;;;;;;5096074;28;20043;-73
2022/05/10 09:26:42;;;;;;;1.20;0.43;;;23.80;92.40;;;;;;5096675;28;20192;-72
2022/05/10 09:29:32;;;;;;;0.75;0.57;;;23.70;92.00;;;;;;5096548;28;20134;-73
2022/05/10 09:35:01;;;;;;;1.45;0.77;;;23.50;93.10;;;;;;5096726;28;20052;-74
2022/05/10 09:38:02;;;;;;;1.35;0.85;;;23.60;93.30;;;;;;5096411;28;20456;-72
2022/05/10 09:40:34;;;;;;;0.45;0.32;;;23.80;93.40;;;;;;5040828;28;20071;-72
2022/05/10 09:43:15;;;;;;;0.20;0.20;;;23.90;92.70;;;;;;5096392;28;20078;-74
2022/05/10 09:45:41;;;;;;;1.40;0.93;;;24.20;93.00;;;;;;5096546;28;20048;-72
2022/05/10 09:48:13;;;;;;;1.13;0.60;;;24.30;92.20;;;;;;5078218;28;20434;-74
2022/05/10 09:50:42;;;;;;;0.55;0.30;;;24.40;92.60;;;;;;5096228;28;20089;-73
2022/05/10 09:53:28;;;;;;;0.40;0.28;;;24.50;92.40;;;;;;5095653;28;20127;-72
2022/05/10 09:56:00;;;;;;;0.98;0.88;;;24.60;93.20;;;;;;5096304;28;20357;-71
2022/05/10 09:58:30;;;;;;;0.25;0.25;;;24.80;92.90;;;;;;5095681;28;20056;-74
2022/05/10 10:00:59;;;;;;;0.68;0.50;;;25.00;92.00;;;;;;5095619;28;20513;-74
2022/05/10 10:03:37;;;;;;;0.52;0.50;;;24.90;91.60;;;;;;5095604;28;20044;-73
2022/05/10 10:06:28;;;;;;;0.90;0.70;;;25.00;91.90;;;;;;5095698;28;20127;-74
2022/05/10 10:08:56;;;;;;;0.52;0.50;;;24.90;92.70;;;;;;5090764;28;20047;-73
2022/05/10 10:11:21;;;;;;;0.47;0.32;;;24.90;91.80;;;;;;5096119;28;20048;-72
2022/05/10 10:13:51;;;;;;;1.27;0.55;;;24.80;92.00;;;;;;5095666;28;20514;-73
2022/05/10 10:16:27;;;;;;;0.80;0.60;;;24.70;91.80;;;;;;5095697;28;20040;-74
2022/05/10 10:18:59;;;;;;;0.50;0.50;;;24.60;91.50;;;;;;5095489;28;20062;-73
2022/05/10 10:21:33;;;;;;;0.45;0.40;;;24.40;91.10;;;;;;5095608;28;20040;-74
2022/05/10 10:24:00;;;;;;;0.28;0.28;;;24.50;91.80;;;;;;5095389;28;20127;-72
2022/05/10 10:26:35;;;;;;;1.65;0.70;;;24.50;92.20;;;;;;5077969;28;20047;-74
2022/05/10 10:29:13;;;;;;;0.45;0.45;;;24.40;92.70;;;;;;5077455;28;20049;-72
2022/05/10 10:31:43;;;;;;;0.40;0.40;;;24.70;92.50;;;;;;5095096;28;20105;-73
2022/05/10 10:34:31;;;;;;;2.45;1.13;;;24.90;92.60;;;;;;5077478;28;20051;-72
2022/05/10 10:37:16;;;;;;;0.57;0.40;;;25.10;91.80;;;;;;5077270;28;20444;-74
2022/05/10 10:40:09;;;;;;;1.23;1.10;;;25.40;92.10;;;;;;5078076;28;20044;-73
2022/05/10 10:42:37;;;;;;;2.92;1.55;;;25.90;91.60;;;;;;5095258;28;20044;-73
2022/05/10 10:45:08;;;;;;;0.20;0.20;;;26.40;91.40;;;;;;5095586;28;20070;-73
2022/05/10 10:47:45;;;;;;;0.40;0.30;;;26.50;90.50;;;;;;5095243;28;20063;-72
2022/05/10 10:50:27;;;;;;;0.45;0.25;;;26.60;89.50;;;;;;5095354;28;20044;-73
2022/05/10 10:52:56;;;;;;;2.45;1.23;;;26.70;90.20;;;;;;5095061;28;20040;-73
2022/05/10 10:55:36;;;;;;;0.30;0.25;;;26.90;89.50;;;;;;5095269;28;20424;-72
2022/05/10 10:58:26;;;;;;;1.10;0.73;;;26.70;87.10;;;;;;5094934;28;20422;-74
2022/05/10 11:01:01;;;;;;;0.55;0.32;;;26.80;88.20;;;;;;5094888;28;20354;-74
2022/05/10 11:03:45;;;;;;;0.82;0.73;;;26.70;87.90;;;;;;5095184;28;20048;-74
2022/05/10 11:06:24;;;;;;;0.30;0.20;;;26.40;86.60;;;;;;5094854;28;20097;-73
2022/05/10 11:09:02;;;;;;;0.52;0.35;;;26.10;86.70;;;;;;5095076;28;20052;-73
2022/05/10 11:11:41;;;;;;;0.40;0.35;;;25.90;87.90;;;;;;5094959;28;20048;-74
2022/05/10 11:14:48;;;;;;;1.80;0.70;;;25.50;87.50;;;;;;5095204;28;20047;-74
2022/05/10 11:17:48;;;;;;;0.75;0.57;;;25.40;89.00;;;;;;5094807;28;20119;-72
2022/05/10 11:20:22;;;;;;;1.38;0.65;;;25.10;88.90;;;;;;5076410;28;20127;-72
2022/05/10 11:23:10;;;;;;;0.20;0.20;;;24.80;89.60;;;;;;5094711;28;20044;-73
2022/05/10 11:26:02;;;;;;;0.30;0.30;;;24.80;90.50;;;;;;5095199;28;20043;-73
2022/05/10 11:28:55;;;;;;;0.28;0.28;;;24.70;90.90;;;;;;5094799;28;20139;-74
2022/05/10 11:31:28;;;;;;;0.65;0.40;;;24.80;91.20;;;;;;5094354;28;20061;-73
2022/05/10 11:34:31;;;;;;;1.45;0.98;;;24.70;90.60;;;;;;5094965;28;20079;-73
2022/05/10 11:37:00;;;;;;;;;;;24.80;90.30;;;;;;5094696;28;20514;-71
2022/05/10 11:39:37;;;;;;;0.47;0.43;;;24.90;90.80;;;;;;5077752;28;19927;-74
2022/05/10 11:42:18;;;;;;;1.25;0.90;;;25.20;90.80;;;;;;5098403;28;20040;-73
2022/05/10 11:45:03;;;;;;;0.30;0.30;;;25.20;90.00;;;;;;5098724;28;20048;-72
2022/05/10 11:47:52;;;;;;;0.63;0.50;;;25.20;90.20;;;;;;5098763;28;20341;-73
2022/05/10 11:50:38;;;;;;;0.80;0.52;;;25.20;90.40;;;;;;5098425;28;20040;-72
2022/05/10 11:53:30;;;;;;;0.60;0.60;;;25.30;90.80;;;;;;5080780;28;20048;-73
2022/05/10 11:56:01;;;;;;;0.57;0.47;;;25.30;90.60;;;;;;5098239;28;20044;-71
2022/05/10 11:58:30;;;;;;;0.70;0.50;;;25.50;90.80;;;;;;5098029;28;20060;-73
2022/05/10 12:00:56;;;;;;;0.47;0.32;;;25.60;90.50;;;;;;5097748;28;20094;-72
2022/05/10 12:03:40;;;;;;;0.75;0.75;;;25.70;91.10;;;;;;5098250;28;20059;-73
2022/05/10 12:06:24;;;;;;;0.80;0.52;;;25.90;90.60;;;;;;5098059;28;20131;-74
2022/05/10 12:08:54;;;;;;;0.20;0.20;;;26.10;90.40;;;;;;5098457;28;20403;-74
2022/05/10 12:11:39;;;;;;;0.28;0.28;;;26.00;87.30;;;;;;5080287;28;20059;-74
2022/05/10 12:22:58;;;;;;;1.85;0.77;;;26.60;87.70;;;;;;5097599;28;20047;-72
2022/05/10 12:25:51;;;;;;;1.02;0.68;;;26.40;86.80;;;;;;5097828;28;20368;-74
2022/05/10 12:28:37;;;;;;;0.30;0.30;;;26.40;86.00;;;;;;5098099;28;20052;-73
2022/05/10 12:31:32;;;;;;;1.35;0.45;;;26.30;85.30;;;;;;5079506;28;20459;-72
2022/05/10 12:34:03;;;;;;;0.63;0.45;;;26.30;86.40;;;;;;5060718;28;20060;-73
2022/05/10 12:37:16;;;;;;;1.40;0.82;;;26.40;84.50;;;;;;5045404;28;20059;-73
2022/05/10 12:39:41;;;;;;;0.80;0.65;;;26.50;84.70;;;;;;5097495;28;20044;-72
2022/05/10 12:42:19;;;;;;;1.05;0.50;;;26.70;85.10;;;;;;5097485;28;20373;-74
2022/05/10 12:45:06;;;;;;;0.17;0.17;;;26.70;85.70;;;;;;5081580;28;20036;-73
2022/05/10 12:47:53;;;;;;;0.75;0.55;;;26.50;84.10;;;;;;5097216;28;20440;-72
2022/05/10 12:50:25;;;;;;;0.80;0.43;;;26.30;85.40;;;;;;5079431;28;20399;-73
2022/05/10 12:52:50;;;;;;;0.38;0.25;;;26.20;86.80;;;;;;5097382;28;20047;-74
2022/05/10 12:55:18;;;;;;;0.52;0.47;;;26.30;87.20;;;;;;5079472;28;20123;-73
2022/05/10 12:57:53;;;;;;;0.57;0.50;;;26.40;87.30;;;;;;5097320;28;20409;-74
2022/05/10 13:00:26;;;;;;;0.20;0.20;;;26.20;86.00;;;;;;5096340;28;20083;-72
2022/05/10 13:03:12;;;;;;;;;;;26.20;86.80;;;;;;5096864;28;20102;-74
2022/05/10 13:06:14;;;;;;;2.58;1.23;;;26.00;85.90;;;;;;5097271;28;19920;-75
2022/05/10 13:08:52;;;;;;;0.60;0.30;;;25.90;86.10;;;;;;5096801;28;20062;-72
2022/05/10 13:11:21;;;;;;;0.70;0.70;;;25.80;87.20;;;;;;5097005;28;20044;-73
2022/05/10 13:13:48;;;;;;;0.70;0.60;;;25.70;87.90;;;;;;5097110;28;20098;-72
2022/05/10 13:16:17;;;;;;;0.90;0.70;;;25.70;87.90;;;;;;5078889;28;20055;-72
2022/05/10 13:18:46;;;;;;;0.30;0.28;;;25.60;86.10;;;;;;5096648;28;20376;-72
2022/05/10 13:21:12;;;;;;;1.10;0.82;;;25.50;86.20;;;;;;5096984;28;20463;-74
2022/05/10 13:23:39;;;;;;;0.98;0.68;;;25.40;86.90;;;;;;5096630;28;20070;-72
2022/05/10 13:26:07;;;;;;;0.75;0.65;;;25.20;85.70;;;;;;5096728;28;20097;-72